createdAt,value
2023-01-19T00:00:55.370Z,94.40
2023-01-19T00:03:22.310Z,92.30
2023-01-19T00:05:49.923Z,92.70
2023-01-19T00:08:17.679Z,94.60
2023-01-19T00:10:52.966Z,94.10
2023-01-19T00:13:19.978Z,94.30
2023-01-19T00:15:47.366Z,96.70
2023-01-19T00:18:14.396Z,97.60
2023-01-19T00:20:42.158Z,98.90
2023-01-19T00:23:09.416Z,99.50
2023-01-19T00:25:44.400Z,98.40
2023-01-19T00:28:16.033Z,98.60
2023-01-19T00:30:44.529Z,98.80
2023-01-19T00:33:14.595Z,97.70
2023-01-19T00:35:42.674Z,98.10
2023-01-19T00:38:12.590Z,99.30
2023-01-19T00:40:39.642Z,99.90
2023-01-19T00:43:06.770Z,99.90
2023-01-19T00:45:34.625Z,99.90
2023-01-19T00:48:02.320Z,99.90
2023-01-19T00:50:32.619Z,99.90
2023-01-19T00:53:01.988Z,99.90
2023-01-19T00:55:32.364Z,99.90
2023-01-19T00:57:59.730Z,99.90
2023-01-19T01:00:26.989Z,99.90
2023-01-19T01:02:54.934Z,99.90
2023-01-19T01:05:25.346Z,99.90
2023-01-19T01:07:52.384Z,99.90
2023-01-19T01:10:26.482Z,99.90
2023-01-19T01:12:58.115Z,99.90
2023-01-19T01:15:41.175Z,99.90
2023-01-19T01:18:08.369Z,99.90
2023-01-19T01:20:37.390Z,99.90
2023-01-19T01:23:04.691Z,99.90
2023-01-19T01:25:34.081Z,99.90
2023-01-19T01:28:02.973Z,99.90
2023-01-19T01:30:29.921Z,99.90
2023-01-19T01:32:56.902Z,99.90
2023-01-19T01:35:24.094Z,99.90
2023-01-19T01:37:51.090Z,99.90
2023-01-19T01:40:19.585Z,99.90
2023-01-19T01:42:46.699Z,99.90
2023-01-19T01:45:38.291Z,99.90
2023-01-19T01:48:22.271Z,99.90
2023-01-19T01:51:18.181Z,99.90
2023-01-19T01:53:52.492Z,99.90
2023-01-19T01:56:32.441Z,99.90
2023-01-19T01:59:05.425Z,99.90
2023-01-19T02:01:51.537Z,99.90
2023-01-19T02:04:19.851Z,99.90
2023-01-19T02:07:07.283Z,99.90
2023-01-19T02:09:56.455Z,99.90
2023-01-19T02:12:44.224Z,99.90
2023-01-19T02:15:20.264Z,99.90
2023-01-19T02:17:48.089Z,99.90
2023-01-19T02:20:16.256Z,99.90
2023-01-19T02:22:51.322Z,99.90
2023-01-19T02:25:20.495Z,99.90
2023-01-19T02:27:49.781Z,99.90
2023-01-19T02:30:18.259Z,99.90
2023-01-19T02:32:45.653Z,99.90
2023-01-19T02:35:13.663Z,99.90
2023-01-19T02:37:44.159Z,99.90
2023-01-19T02:40:21.831Z,99.90
2023-01-19T02:43:00.904Z,99.90
2023-01-19T02:45:28.631Z,99.90
2023-01-19T02:47:55.814Z,99.90
2023-01-19T02:51:04.099Z,99.90
2023-01-19T02:54:04.536Z,99.90
2023-01-19T02:56:41.435Z,99.90
2023-01-19T02:59:17.107Z,99.90
2023-01-19T03:02:54.029Z,99.90
2023-01-19T03:06:04.135Z,99.90
2023-01-19T03:09:04.034Z,99.90
2023-01-19T03:11:44.925Z,99.90
2023-01-19T03:14:22.097Z,99.90
2023-01-19T03:16:59.425Z,99.90
2023-01-19T03:19:36.502Z,99.90
2023-01-19T03:22:14.986Z,99.90
2023-01-19T03:24:48.073Z,99.90
2023-01-19T03:27:24.287Z,99.90
2023-01-19T03:30:07.799Z,99.90
2023-01-19T03:32:48.460Z,99.90
2023-01-19T03:35:22.758Z,99.90
2023-01-19T03:37:58.129Z,99.90
2023-01-19T03:40:32.042Z,99.90
2023-01-19T03:43:03.674Z,99.90
2023-01-19T03:45:36.900Z,99.90
2023-01-19T03:48:06.047Z,99.90
2023-01-19T03:50:33.191Z,99.90
2023-01-19T03:53:11.713Z,99.90
2023-01-19T03:55:45.063Z,99.90
2023-01-19T03:58:12.599Z,99.90
2023-01-19T04:00:40.012Z,99.90
2023-01-19T04:03:14.945Z,99.90
2023-01-19T04:05:42.644Z,99.90
2023-01-19T04:08:09.956Z,99.90
2023-01-19T04:10:38.308Z,99.90
2023-01-19T04:13:06.277Z,99.90
2023-01-19T04:15:33.567Z,99.90
2023-01-19T04:18:01.585Z,99.90
2023-01-19T04:20:29.434Z,99.90
2023-01-19T04:23:01.330Z,99.90
2023-01-19T04:25:29.056Z,99.90
2023-01-19T04:27:58.330Z,99.90
2023-01-19T04:30:27.566Z,99.90
2023-01-19T04:32:55.491Z,99.90
2023-01-19T04:35:23.605Z,99.90
2023-01-19T04:37:50.898Z,99.90
2023-01-19T04:40:18.096Z,99.90
2023-01-19T04:42:46.739Z,99.90
2023-01-19T04:45:14.881Z,99.90
2023-01-19T04:47:44.725Z,99.90
2023-01-19T04:50:12.437Z,99.90
2023-01-19T04:52:39.577Z,99.90
2023-01-19T04:55:08.010Z,99.90
2023-01-19T04:57:35.637Z,99.90
2023-01-19T05:00:06.612Z,99.90
2023-01-19T05:02:34.419Z,99.90
2023-01-19T05:05:01.869Z,99.90
2023-01-19T05:07:29.273Z,99.90
2023-01-19T05:09:57.060Z,99.90
2023-01-19T05:12:23.993Z,99.90
2023-01-19T05:14:50.921Z,99.90
2023-01-19T05:17:18.145Z,99.90
2023-01-19T05:19:45.034Z,99.90
2023-01-19T05:22:11.936Z,99.90
2023-01-19T05:24:39.122Z,99.90
2023-01-19T05:27:06.173Z,99.90
2023-01-19T05:29:33.201Z,99.90
2023-01-19T05:32:01.269Z,99.90
2023-01-19T05:34:28.387Z,99.90
2023-01-19T05:36:55.439Z,99.90
2023-01-19T05:39:22.568Z,99.90
2023-01-19T05:41:49.472Z,99.90
2023-01-19T05:44:16.493Z,99.90
2023-01-19T05:46:43.622Z,99.90
2023-01-19T05:49:12.903Z,99.90
2023-01-19T05:51:40.430Z,99.90
2023-01-19T05:54:08.782Z,99.90
2023-01-19T05:56:36.194Z,99.90
2023-01-19T05:59:03.219Z,99.90
2023-01-19T06:01:30.232Z,99.90
2023-01-19T06:03:57.450Z,99.90
2023-01-19T06:06:24.613Z,99.90
2023-01-19T06:08:51.672Z,99.90
2023-01-19T06:11:18.871Z,99.90
2023-01-19T06:13:46.760Z,99.90
2023-01-19T06:16:14.480Z,99.90
2023-01-19T06:18:41.794Z,99.90
2023-01-19T06:21:12.346Z,99.90
2023-01-19T06:23:39.368Z,99.90
2023-01-19T06:26:06.553Z,99.90
2023-01-19T06:28:36.346Z,99.90
2023-01-19T06:31:03.858Z,99.90
2023-01-19T06:33:31.551Z,99.90
2023-01-19T06:35:58.856Z,99.90
2023-01-19T06:38:25.974Z,99.90
2023-01-19T06:40:58.731Z,99.90
2023-01-19T06:43:27.094Z,99.90
2023-01-19T06:45:54.829Z,99.90
2023-01-19T06:48:23.440Z,99.90
2023-01-19T06:50:50.566Z,99.90
2023-01-19T06:53:19.904Z,99.90
2023-01-19T06:55:46.978Z,99.90
2023-01-19T06:58:14.173Z,99.90
2023-01-19T07:00:41.274Z,99.90
2023-01-19T07:03:10.090Z,99.90
2023-01-19T07:05:37.454Z,99.90
2023-01-19T07:08:05.301Z,99.90
2023-01-19T07:11:26.759Z,99.90
2023-01-19T07:13:19.556Z,99.90
2023-01-19T07:15:46.534Z,99.90
2023-01-19T07:18:13.442Z,99.90
2023-01-19T07:20:40.541Z,99.90
2023-01-19T07:23:07.552Z,99.90
2023-01-19T07:25:36.823Z,99.90
2023-01-19T07:28:04.401Z,99.90
2023-01-19T07:30:31.649Z,99.90
2023-01-19T07:32:59.337Z,99.90
2023-01-19T07:35:27.031Z,99.90
2023-01-19T07:37:54.290Z,99.90
2023-01-19T07:40:23.334Z,99.90
2023-01-19T07:42:52.061Z,99.90
2023-01-19T07:45:21.407Z,99.90
2023-01-19T07:47:49.983Z,99.90
2023-01-19T07:50:24.535Z,99.90
2023-01-19T07:52:53.572Z,99.90
2023-01-19T07:55:25.675Z,99.90
2023-01-19T07:57:57.244Z,99.90
2023-01-19T08:01:07.217Z,99.90
2023-01-19T08:03:45.173Z,99.90
2023-01-19T08:06:41.301Z,99.90
2023-01-19T08:09:17.417Z,99.90
2023-01-19T08:14:50.040Z,99.90
2023-01-19T08:21:05.731Z,99.50
2023-01-19T08:23:57.848Z,98.80
2023-01-19T08:26:38.834Z,97.40
2023-01-19T08:29:15.368Z,97.40
2023-01-19T08:31:48.627Z,95.30
2023-01-19T08:34:32.927Z,95.40
2023-01-19T08:37:06.979Z,96.00
2023-01-19T08:39:46.050Z,94.50
2023-01-19T08:42:18.936Z,95.20
2023-01-19T08:44:58.706Z,94.70
2023-01-19T08:47:33.904Z,94.70
2023-01-19T08:50:01.511Z,93.90
2023-01-19T08:53:01.523Z,94.00
2023-01-19T08:58:39.387Z,91.30
2023-01-19T09:01:16.344Z,92.00
2023-01-19T09:04:08.520Z,89.80
2023-01-19T09:06:35.941Z,90.80
2023-01-19T09:09:04.041Z,91.60
2023-01-19T09:11:31.453Z,90.30
2023-01-19T09:14:01.784Z,89.00
2023-01-19T09:16:29.323Z,89.50
2023-01-19T09:19:01.301Z,88.50
2023-01-19T09:21:29.303Z,87.20
2023-01-19T09:23:59.588Z,85.80
2023-01-19T09:26:33.187Z,86.00
2023-01-19T09:29:03.028Z,85.80
2023-01-19T09:31:30.370Z,86.00
2023-01-19T09:33:57.906Z,84.50
2023-01-19T09:36:27.834Z,84.20
2023-01-19T09:38:57.775Z,84.10
2023-01-19T09:41:33.536Z,84.20
2023-01-19T09:44:04.438Z,84.60
2023-01-19T09:46:45.308Z,83.60
2023-01-19T09:49:50.969Z,83.10
2023-01-19T09:52:34.972Z,82.50
2023-01-19T09:55:04.361Z,82.40
2023-01-19T09:57:33.583Z,81.70
2023-01-19T10:00:18.226Z,81.80
2023-01-19T10:03:23.552Z,81.20
2023-01-19T10:06:14.001Z,80.70
2023-01-19T10:09:31.922Z,79.90
2023-01-19T10:12:32.248Z,81.30
2023-01-19T10:16:02.719Z,80.60
2023-01-19T10:18:52.014Z,78.90
2023-01-19T10:21:43.298Z,75.70
2023-01-19T10:24:42.216Z,75.90
2023-01-19T10:27:40.584Z,74.70
2023-01-19T10:30:24.587Z,76.30
2023-01-19T10:33:00.966Z,76.60
2023-01-19T10:35:32.720Z,75.50
2023-01-19T10:38:05.734Z,75.60
2023-01-19T10:41:14.063Z,75.80
2023-01-19T10:44:20.064Z,76.90
2023-01-19T10:47:00.001Z,72.90
2023-01-19T10:49:42.908Z,74.30
2023-01-19T10:52:36.108Z,73.20
2023-01-19T10:55:46.959Z,74.60
2023-01-19T10:58:43.634Z,65.60
2023-01-19T11:01:26.916Z,67.50
2023-01-19T11:04:00.259Z,70.00
2023-01-19T11:06:31.347Z,72.40
2023-01-19T11:09:19.074Z,72.30
2023-01-19T11:11:53.253Z,72.70
2023-01-19T11:14:26.419Z,72.80
2023-01-19T11:17:00.299Z,72.90
2023-01-19T11:19:33.024Z,71.80
2023-01-19T11:22:33.075Z,71.10
2023-01-19T11:25:06.008Z,70.40
2023-01-19T11:27:37.812Z,70.90
2023-01-19T11:30:27.031Z,71.70
2023-01-19T11:32:56.363Z,71.90
2023-01-19T11:35:40.170Z,73.70
2023-01-19T11:38:13.374Z,75.70
2023-01-19T11:40:50.768Z,75.00
2023-01-19T11:43:18.547Z,74.80
2023-01-19T11:45:48.719Z,75.10
2023-01-19T11:48:45.235Z,75.50
2023-01-19T11:51:39.129Z,75.80
2023-01-19T11:54:28.261Z,75.90
2023-01-19T11:57:00.168Z,75.30
2023-01-19T11:59:29.291Z,74.90
2023-01-19T12:02:09.330Z,72.80
2023-01-19T12:04:50.909Z,70.90
2023-01-19T12:07:33.888Z,71.60
2023-01-19T12:10:32.128Z,72.40
2023-01-19T12:13:00.925Z,72.40
2023-01-19T12:15:47.339Z,73.20
2023-01-19T12:18:30.760Z,75.20
2023-01-19T12:21:03.781Z,75.70
2023-01-19T12:24:01.715Z,75.40
2023-01-19T12:26:55.946Z,75.20
2023-01-19T12:29:33.926Z,74.70
2023-01-19T12:32:17.617Z,76.40
2023-01-19T12:34:52.005Z,75.90
2023-01-19T12:37:32.408Z,75.90
2023-01-19T12:40:26.659Z,76.10
2023-01-19T12:43:05.740Z,75.50
2023-01-19T12:45:48.656Z,76.00
2023-01-19T12:48:27.794Z,75.50
2023-01-19T12:50:55.213Z,75.60
2023-01-19T12:53:26.711Z,75.30
2023-01-19T12:56:08.595Z,75.80
2023-01-19T12:58:35.949Z,75.70
2023-01-19T13:01:21.936Z,75.60
2023-01-19T13:04:54.658Z,75.40
2023-01-19T13:07:24.231Z,75.10
2023-01-19T13:09:51.271Z,73.70
2023-01-19T13:12:26.295Z,73.90
2023-01-19T13:15:35.896Z,73.40
2023-01-19T13:18:04.637Z,73.80
2023-01-19T13:20:58.527Z,73.50
2023-01-19T13:23:28.549Z,73.80
2023-01-19T13:26:28.880Z,73.60
2023-01-19T13:29:14.205Z,73.80
2023-01-19T13:31:45.964Z,74.60
2023-01-19T13:34:21.321Z,75.00
2023-01-19T13:36:59.570Z,74.80
2023-01-19T13:39:40.030Z,74.50
2023-01-19T13:42:40.569Z,75.20
2023-01-19T13:45:34.424Z,75.50
2023-01-19T13:48:12.990Z,75.70
2023-01-19T13:50:40.591Z,75.60
2023-01-19T13:53:21.622Z,76.00
2023-01-19T13:56:24.624Z,76.00
2023-01-19T13:59:13.604Z,76.70
2023-01-19T14:01:46.031Z,77.90
2023-01-19T14:04:35.992Z,77.40
2023-01-19T14:07:29.314Z,78.00
2023-01-19T14:10:17.020Z,77.90
2023-01-19T14:12:59.679Z,77.90
2023-01-19T14:15:37.680Z,78.40
2023-01-19T14:18:16.785Z,78.20
2023-01-19T14:21:48.510Z,79.50
2023-01-19T14:25:06.650Z,79.70
2023-01-19T14:31:52.362Z,80.00
2023-01-19T14:38:17.993Z,81.20
2023-01-19T14:48:43.646Z,84.00
2023-01-19T14:51:35.717Z,85.50
2023-01-19T14:54:55.219Z,85.50
2023-01-19T14:57:34.533Z,86.50
2023-01-19T15:00:32.446Z,86.20
2023-01-19T15:03:34.992Z,86.80
2023-01-19T15:06:48.366Z,87.20
2023-01-19T15:09:51.540Z,88.10
2023-01-19T15:12:31.952Z,89.20
2023-01-19T15:15:04.572Z,89.20
2023-01-19T15:17:48.969Z,89.10
2023-01-19T15:20:35.886Z,90.50
2023-01-19T15:23:30.822Z,90.60
2023-01-19T15:26:38.279Z,90.90
2023-01-19T15:29:37.969Z,91.00
2023-01-19T15:32:46.328Z,90.80
2023-01-19T15:36:13.701Z,91.30
2023-01-19T15:39:54.074Z,91.50
2023-01-19T15:43:06.934Z,91.50
2023-01-19T15:46:11.530Z,91.80
2023-01-19T15:49:17.901Z,92.00
2023-01-19T15:55:22.165Z,93.00
2023-01-19T15:58:38.406Z,93.20
2023-01-19T16:01:19.945Z,93.20
2023-01-19T16:07:26.866Z,93.30
2023-01-19T16:10:18.761Z,92.90
2023-01-19T16:12:54.713Z,93.80
2023-01-19T16:15:48.351Z,93.70
2023-01-19T16:18:36.609Z,93.90
2023-01-19T16:21:12.418Z,93.70
2023-01-19T16:28:38.825Z,93.30
2023-01-19T16:34:28.843Z,93.80
2023-01-19T16:36:58.770Z,94.50
2023-01-19T16:40:09.865Z,93.80
2023-01-19T16:42:49.499Z,93.50
2023-01-19T16:45:19.960Z,93.80
2023-01-19T16:48:09.150Z,94.30
2023-01-19T16:50:43.610Z,94.30
2023-01-19T16:53:33.268Z,94.50
2023-01-19T17:03:13.122Z,94.40
2023-01-19T17:05:55.095Z,94.80
2023-01-19T17:08:35.563Z,94.50
2023-01-19T17:11:22.361Z,94.50
2023-01-19T17:14:13.754Z,95.10
2023-01-19T17:16:48.790Z,94.30
2023-01-19T17:19:32.635Z,93.20
2023-01-19T17:22:10.346Z,93.60
2023-01-19T17:24:46.934Z,94.50
2023-01-19T17:27:25.445Z,93.10
2023-01-19T17:29:55.395Z,92.50
2023-01-19T17:32:22.881Z,92.20
2023-01-19T17:34:53.189Z,92.00
2023-01-19T17:37:20.625Z,91.50
2023-01-19T17:39:48.060Z,91.50
2023-01-19T17:42:15.290Z,91.50
2023-01-19T17:44:42.579Z,90.90
2023-01-19T17:47:09.691Z,91.00
2023-01-19T17:49:37.135Z,90.80
2023-01-19T17:52:06.505Z,90.80
2023-01-19T17:54:34.041Z,89.90
2023-01-19T17:57:03.993Z,90.00
2023-01-19T17:59:34.980Z,91.20
2023-01-19T18:02:03.354Z,88.20
2023-01-19T18:04:36.009Z,88.90
2023-01-19T18:07:09.722Z,88.90
2023-01-19T18:09:39.749Z,89.70
2023-01-19T18:12:11.276Z,89.80
2023-01-19T18:14:43.058Z,89.50
2023-01-19T18:17:10.423Z,90.30
2023-01-19T18:19:45.616Z,90.00
2023-01-19T18:22:21.230Z,89.30
2023-01-19T18:24:49.162Z,90.10
2023-01-19T18:27:26.888Z,90.20
2023-01-19T18:29:59.290Z,90.20
2023-01-19T18:32:29.637Z,90.10
2023-01-19T18:35:20.747Z,90.70
2023-01-19T18:37:52.254Z,91.10
2023-01-19T18:40:25.706Z,90.80
2023-01-19T18:42:58.639Z,90.80
2023-01-19T18:45:35.006Z,91.10
2023-01-19T18:48:05.565Z,90.70
2023-01-19T18:50:51.129Z,91.50
2023-01-19T18:53:29.352Z,91.60
2023-01-19T18:56:08.767Z,92.10
2023-01-19T18:58:43.509Z,92.00
2023-01-19T19:01:32.857Z,92.20
2023-01-19T19:04:04.008Z,92.10
2023-01-19T19:06:31.402Z,92.10
2023-01-19T19:09:07.535Z,92.40
2023-01-19T19:11:35.925Z,91.80
2023-01-19T19:14:03.755Z,92.60
2023-01-19T19:16:36.553Z,92.80
2023-01-19T19:19:08.615Z,92.60
2023-01-19T19:21:40.047Z,93.30
2023-01-19T19:24:21.669Z,92.90
2023-01-19T19:26:49.984Z,92.90
2023-01-19T19:29:19.846Z,92.70
2023-01-19T19:31:47.575Z,93.00
2023-01-19T19:34:26.692Z,93.40
2023-01-19T19:37:09.093Z,93.30
2023-01-19T19:39:43.484Z,93.90
2023-01-19T19:42:37.243Z,93.50
2023-01-19T19:45:19.792Z,93.70
2023-01-19T19:51:09.420Z,93.80
2023-01-19T19:54:20.945Z,94.30
2023-01-19T19:56:59.915Z,93.60
2023-01-19T19:59:32.433Z,93.70
2023-01-19T20:02:02.751Z,93.70
2023-01-19T20:04:35.346Z,93.90
2023-01-19T20:07:17.108Z,94.10
2023-01-19T20:13:09.221Z,94.20
2023-01-19T20:16:03.963Z,94.50
2023-01-19T20:18:51.148Z,94.40
2023-01-19T20:21:59.467Z,94.70
2023-01-19T20:28:35.787Z,94.50
2023-01-19T20:31:46.236Z,94.70
2023-01-19T20:34:44.712Z,96.10
2023-01-19T20:37:55.041Z,95.30
2023-01-19T20:40:37.983Z,95.50
2023-01-19T20:46:57.083Z,95.40
2023-01-19T20:49:27.581Z,96.70
2023-01-19T20:52:31.827Z,97.20
2023-01-19T20:55:24.683Z,96.20
2023-01-19T20:58:02.566Z,96.00
2023-01-19T21:06:53.829Z,97.80
2023-01-19T21:09:50.380Z,96.60
2023-01-19T21:12:28.946Z,94.70
2023-01-19T21:15:22.100Z,94.50
2023-01-19T21:18:28.957Z,95.00
2023-01-19T21:23:41.782Z,96.70
2023-01-19T21:26:14.799Z,97.10
2023-01-19T21:28:42.365Z,97.20
2023-01-19T21:31:27.690Z,96.80
2023-01-19T21:33:57.739Z,97.40
2023-01-19T21:36:30.440Z,97.50
2023-01-19T21:39:01.243Z,97.30
2023-01-19T21:41:30.338Z,97.60
2023-01-19T21:44:06.910Z,96.50
2023-01-19T21:46:36.329Z,97.00
2023-01-19T21:49:08.831Z,97.20
2023-01-19T21:51:37.419Z,96.60
2023-01-19T21:54:09.217Z,96.70
2023-01-19T21:56:40.102Z,97.00
2023-01-19T21:59:07.579Z,97.40
2023-01-19T22:01:37.597Z,98.10
2023-01-19T22:04:05.326Z,98.80
2023-01-19T22:06:34.907Z,98.60
2023-01-19T22:09:05.372Z,99.10
2023-01-19T22:11:33.211Z,99.50
2023-01-19T22:14:01.482Z,97.80
2023-01-19T22:16:32.454Z,98.70
2023-01-19T22:19:02.437Z,99.40
2023-01-19T22:21:38.130Z,99.90
2023-01-19T22:24:06.071Z,99.90
2023-01-19T22:26:34.310Z,99.60
2023-01-19T22:29:05.066Z,99.80
2023-01-19T22:31:35.981Z,99.90
2023-01-19T22:34:04.682Z,99.90
2023-01-19T22:36:36.605Z,99.90
2023-01-19T22:39:09.027Z,99.90
2023-01-19T22:41:41.121Z,99.90
2023-01-19T22:44:22.550Z,99.90
2023-01-19T22:46:55.026Z,99.90
2023-01-19T22:49:22.604Z,99.90
2023-01-19T22:51:49.605Z,99.90
2023-01-19T22:54:16.564Z,98.70
2023-01-19T22:56:45.979Z,96.90
2023-01-19T22:59:13.010Z,98.30
2023-01-19T23:01:43.702Z,98.40
2023-01-19T23:04:15.945Z,99.50
2023-01-19T23:06:50.139Z,97.50
2023-01-19T23:09:18.441Z,98.60
2023-01-19T23:11:51.106Z,98.30
2023-01-19T23:14:22.195Z,96.90
2023-01-19T23:16:49.531Z,98.70
2023-01-19T23:19:17.702Z,98.70
2023-01-19T23:21:45.740Z,97.30
2023-01-19T23:24:12.881Z,97.80
2023-01-19T23:26:39.986Z,98.40
2023-01-19T23:29:14.766Z,98.60
2023-01-19T23:31:48.798Z,99.20
2023-01-19T23:34:17.395Z,99.90
2023-01-19T23:36:45.176Z,99.50
2023-01-19T23:39:22.557Z,99.60
2023-01-19T23:41:50.098Z,99.60
2023-01-19T23:44:18.380Z,99.70
2023-01-19T23:46:46.712Z,99.20
2023-01-19T23:49:14.021Z,98.70
2023-01-19T23:51:41.873Z,99.50
2023-01-19T23:54:09.288Z,99.90
2023-01-19T23:56:39.147Z,99.90
2023-01-19T23:59:15.401Z,99.90
